Time;durP1;ratioP1;P1;durP2;ratioP2;P2;SDS_P1;SDS_P2;PMS_P1;PMS_P2;Temp;Humidity;BMP_temperature;BMP_pressure;BME280_temperature;BME280_humidity;BME280_pressure;Samples;Min_cycle;Max_cycle;Signal;HPM_P1;HPM_P2
2021/03/10 00:10:28;;;;;;;;;;;;;;;;;;;;;
2021/03/10 00:13:44;;;;;;;;;;;;;;;1.90;76.13;100945.50;6097164;23;19952;-75
2021/03/10 00:28:01;;;;;;;;;;;;;;;;;;;;;
2021/03/10 00:42:12;;;;;;;;;;;;;;;1.62;76.05;100928.72;5907817;23;19911;-77
2021/03/10 01:41:09;;;;;;;;;;;;;;;;;;;;;
2021/03/10 05:54:09;;;;;;;;;;;;;;;;;;;;;
2021/03/10 06:08:15;;;;;;;;;;;;;;;;;;;;;
2021/03/10 06:29:43;;;;;;;;;;;;;;;1.32;82.58;100724.97;6012204;23;20331;-76
2021/03/10 06:32:09;;;;;;;;;;;;;;;1.33;82.47;100714.88;5987096;23;19954;-75
2021/03/10 06:34:48;;;;;;;;;;;;;;;1.31;82.90;100712.38;6091520;23;19961;-75
2021/03/10 06:37:23;;;;;;;;;;;;;;;1.35;82.78;100707.28;6132131;23;19919;-75
2021/03/10 06:39:48;;;;;;;;;;;;;;;1.36;82.83;100708.09;6132444;23;19916;-75
2021/03/10 06:42:14;;;;;;;;;;;;;;;1.36;83.02;100708.94;6108477;23;20261;-75
2021/03/10 06:44:51;;;;;;;;;;;;;;;1.40;82.85;100704.69;6132308;23;19909;-75
2021/03/10 06:47:17;;;;;;;;;;;;;;;1.39;82.87;100708.47;6153599;23;19908;-74
2021/03/10 06:49:51;;;;;;;;;;;;;;;1.44;82.71;100703.16;6137252;23;20437;-75
2021/03/10 06:52:16;;;;;;;;;;;;;;;1.44;82.98;100703.16;6137243;23;19909;-75
2021/03/10 06:54:57;;;;;;;;;;;;;;;1.50;82.56;100696.75;6150616;22;20011;-75
2021/03/10 06:57:22;;;;;;;;;;;;;;;1.47;83.14;100699.13;6343642;22;19910;-75
2021/03/10 06:59:52;;;;;;;;;;;;;;;1.50;83.09;100688.53;6315472;22;19960;-75
2021/03/10 07:02:19;;;;;;;;;;;;;;;1.52;83.23;100691.91;6289822;22;19932;-76
2021/03/10 07:04:48;;;;;;;;;;;;;;;1.54;83.67;100689.78;6290085;22;19907;-75
2021/03/10 07:07:14;;;;;;;;;;;;;;;1.56;82.84;100687.66;6315639;22;19932;-75
2021/03/10 07:09:39;;;;;;;;;;;;;;;1.58;82.88;100681.09;6315599;22;19910;-75
2021/03/10 07:12:08;;;;;;;;;;;;;;;1.60;82.61;100677.06;6315687;22;19910;-75
2021/03/10 07:14:34;;;;;;;;;;;;;;;1.61;83.04;100676.00;6290128;22;19956;-75
2021/03/10 07:17:11;;;;;;;;;;;;;;;1.64;83.54;100683.75;6321558;22;19906;-75
2021/03/10 07:19:37;;;;;;;;;;;;;;;1.70;83.52;100671.03;6347083;22;19931;-75
2021/03/10 07:22:10;;;;;;;;;;;;;;;1.71;83.33;100678.19;6320678;22;20457;-75
2021/03/10 07:24:39;;;;;;;;;;;;;;;1.73;83.69;100671.41;6320723;22;20594;-75
2021/03/10 07:27:04;;;;;;;;;;;;;;;1.74;83.63;100669.50;6320479;22;19986;-76
2021/03/10 07:29:44;;;;;;;;;;;;;;;1.78;83.65;100667.97;6320878;22;19906;-74
2021/03/10 07:32:09;;;;;;;;;;;;;;;1.81;84.05;100672.97;6347190;22;19918;-75
2021/03/10 07:34:37;;;;;;;;;;;;;;;1.85;84.21;100667.88;6320285;22;19961;-75
2021/03/10 07:37:28;;;;;;;;;;;;;;;1.90;83.86;100663.38;6320621;22;20327;-75
2021/03/10 07:40:04;;;;;;;;;;;;;;;1.91;83.71;100662.31;6347934;22;19906;-78
2021/03/10 07:42:29;;;;;;;;;;;;;;;1.97;84.84;100661.38;6374291;22;19932;-78
2021/03/10 07:44:55;;;;;;;;;;;;;;;2.01;84.86;100665.31;6320679;22;19906;-77
2021/03/10 07:47:20;;;;;;;;;;;;;;;2.05;85.27;100662.13;6346930;22;19914;-78
2021/03/10 07:49:54;;;;;;;;;;;;;;;2.08;84.96;100662.47;6320084;22;19997;-78
2021/03/10 07:52:20;;;;;;;;;;;;;;;2.14;84.90;100663.44;6346784;22;19906;-78
2021/03/10 07:54:45;;;;;;;;;;;;;;;2.18;85.62;100662.75;6373959;22;19916;-78
2021/03/10 07:57:10;;;;;;;;;;;;;;;2.22;85.49;100666.66;6345927;22;19955;-78
2021/03/10 07:59:36;;;;;;;;;;;;;;;2.28;85.92;100667.63;6346391;22;20311;-78
2021/03/10 08:02:02;;;;;;;;;;;;;;;2.32;86.96;100663.38;6346331;22;19906;-78
2021/03/10 08:04:27;;;;;;;;;;;;;;;2.39;86.04;100672.31;6373167;22;19963;-78
2021/03/10 08:06:53;;;;;;;;;;;;;;;2.44;86.54;100677.91;6346511;22;19955;-78
2021/03/10 08:09:19;;;;;;;;;;;;;;;2.50;85.55;100678.03;6346340;22;19971;-78
2021/03/10 08:11:44;;;;;;;;;;;;;;;2.56;86.21;100671.59;6346087;22;19938;-78
2021/03/10 08:14:10;;;;;;;;;;;;;;;2.61;85.78;100672.56;6346556;22;19906;-78
2021/03/10 08:16:44;;;;;;;;;;;;;;;2.66;85.31;100672.69;6373808;22;19989;-78
2021/03/10 08:19:10;;;;;;;;;;;;;;;2.76;86.26;100668.50;6319703;22;19989;-78
2021/03/10 08:21:39;;;;;;;;;;;;;;;2.82;85.37;100678.56;6374037;22;19913;-78
2021/03/10 08:24:05;;;;;;;;;;;;;;;2.87;85.46;100682.25;6346356;22;19934;-78
2021/03/10 08:26:30;;;;;;;;;;;;;;;2.99;86.79;100678.66;6319753;22;19910;-78
2021/03/10 08:29:02;;;;;;;;;;;;;;;3.04;85.28;100682.34;6346240;22;20463;-78
2021/03/10 08:31:27;;;;;;;;;;;;;;;3.09;85.59;100678.88;6345538;22;19914;-79
2021/03/10 08:33:53;;;;;;;;;;;;;;;3.19;85.64;100684.59;6319292;22;19913;-79
2021/03/10 08:36:29;;;;;;;;;;;;;;;3.27;85.64;100683.41;6293472;22;19914;-79
2021/03/10 08:38:54;;;;;;;;;;;;;;;3.34;85.55;100681.34;6372769;22;19981;-79
2021/03/10 08:41:20;;;;;;;;;;;;;;;3.43;85.58;100682.66;6347183;22;19953;-78
2021/03/10 08:43:45;;;;;;;;;;;;;;;3.49;85.13;100678.09;6375362;22;20346;-78
2021/03/10 08:46:10;;;;;;;;;;;;;;;3.56;84.92;100684.28;6321404;22;19906;-79
2021/03/10 08:48:36;;;;;;;;;;;;;;;3.68;85.37;100685.09;6321049;22;19906;-79
2021/03/10 08:51:01;;;;;;;;;;;;;;;3.76;84.92;100683.84;6347330;22;19977;-79
2021/03/10 08:53:27;;;;;;;;;;;;;;;3.83;84.48;100690.03;6347714;22;19906;-78
2021/03/10 08:55:52;;;;;;;;;;;;;;;3.90;84.52;100689.88;6347377;22;19910;-78
2021/03/10 08:58:18;;;;;;;;;;;;;;;3.99;84.70;100691.16;6347438;22;19910;-79
2021/03/10 09:00:44;;;;;;;;;;;;;;;4.08;84.96;100686.09;6321880;22;19910;-79
2021/03/10 09:03:10;;;;;;;;;;;;;;;4.16;84.28;100692.03;6347164;22;19913;-79
2021/03/10 09:05:35;;;;;;;;;;;;;;;4.26;84.27;100683.13;6347261;22;19957;-79
2021/03/10 09:08:01;;;;;;;;;;;;;;;4.32;84.34;100676.66;6321272;22;19910;-78
2021/03/10 09:10:26;;;;;;;;;;;;;;;4.39;83.71;100671.81;6347363;22;20476;-78
2021/03/10 09:12:52;;;;;;;;;;;;;;;4.50;83.46;100670.06;6321567;22;19981;-78
2021/03/10 09:15:18;;;;;;;;;;;;;;;4.58;83.71;100669.66;6321063;22;20034;-78
2021/03/10 09:17:44;;;;;;;;;;;;;;;4.65;83.38;100675.84;6322680;22;19906;-78
2021/03/10 09:20:10;;;;;;;;;;;;;;;4.73;83.38;100670.97;6349498;22;19906;-79
2021/03/10 09:22:45;;;;;;;;;;;;;;;4.79;82.94;100670.81;6297642;22;19955;-80
2021/03/10 09:25:11;;;;;;;;;;;;;;;4.88;82.90;100663.78;6323749;22;19906;-79
2021/03/10 09:27:40;;;;;;;;;;;;;;;4.99;82.97;100669.47;6323253;22;19918;-76
2021/03/10 09:30:12;;;;;;;;;;;;;;;5.07;82.80;100667.09;6324707;22;19906;-76
2021/03/10 09:32:44;;;;;;;;;;;;;;;5.17;82.36;100663.63;6322709;22;19906;-77
2021/03/10 09:35:10;;;;;;;;;;;;;;;5.30;81.69;100655.00;6296889;22;19911;-76
2021/03/10 09:37:35;;;;;;;;;;;;;;;5.38;81.92;100639.97;6298007;22;19906;-76
2021/03/10 09:40:04;;;;;;;;;;;;;;;5.51;82.06;100633.22;6322644;22;20226;-76
2021/03/10 09:42:36;;;;;;;;;;;;;;;5.63;81.41;100638.59;6323166;22;20331;-76
2021/03/10 09:45:04;;;;;;;;;;;;;;;5.75;81.22;100631.03;6298152;22;19955;-76
2021/03/10 09:47:32;;;;;;;;;;;;;;;5.88;81.16;100622.34;6297156;22;19910;-76
2021/03/10 09:49:58;;;;;;;;;;;;;;;6.01;79.88;100616.41;6322327;22;19933;-75
2021/03/10 09:52:36;;;;;;;;;;;;;;;6.13;80.32;100608.00;6298596;22;19910;-75
2021/03/10 09:55:02;;;;;;;;;;;;;;;6.30;79.77;100602.34;6348753;22;19910;-76
2021/03/10 09:57:32;;;;;;;;;;;;;;;6.44;79.82;100591.72;6349002;22;19906;-75
2021/03/10 09:59:57;;;;;;;;;;;;;;;6.57;80.02;100593.97;6323386;22;19906;-76
2021/03/10 10:02:23;;;;;;;;;;;;;;;6.71;79.09;100591.59;6297561;22;19906;-76
2021/03/10 10:05:01;;;;;;;;;;;;;;;6.85;78.91;100594.72;6348390;22;19984;-76
2021/03/10 10:07:27;;;;;;;;;;;;;;;6.99;79.22;100595.06;6348856;22;20031;-75
2021/03/10 10:09:53;;;;;;;;;;;;;;;7.13;77.98;100576.91;6322994;22;19906;-75
2021/03/10 10:12:18;;;;;;;;;;;;;;;7.24;77.83;100578.59;6296988;22;19936;-73
2021/03/10 10:14:44;;;;;;;;;;;;;;;7.37;78.26;100575.34;6296181;22;19921;-73
2021/03/10 10:17:09;;;;;;;;;;;;;;;7.45;77.83;100574.00;6349338;22;19911;-73
2021/03/10 10:19:37;;;;;;;;;;;;;;;7.62;78.23;100568.25;6322395;22;19906;-73
2021/03/10 10:22:02;;;;;;;;;;;;;;;7.78;78.14;100572.69;6322570;22;19981;-73
2021/03/10 10:24:28;;;;;;;;;;;;;;;7.92;76.26;100552.81;6323276;22;19955;-73
2021/03/10 10:26:58;;;;;;;;;;;;;;;8.04;76.99;100547.81;6323453;22;19906;-76
2021/03/10 10:29:26;;;;;;;;;;;;;;;8.16;75.57;100562.22;6323692;22;19975;-75
2021/03/10 10:31:52;;;;;;;;;;;;;;;8.27;75.23;100551.97;6322163;22;19914;-76
2021/03/10 10:34:22;;;;;;;;;;;;;;;8.36;75.19;100553.09;6348057;22;19987;-75
2021/03/10 10:36:50;;;;;;;;;;;;;;;8.45;75.12;100547.84;6323185;22;19916;-76
2021/03/10 10:39:15;;;;;;;;;;;;;;;8.59;73.99;100546.16;6322444;22;19938;-75
2021/03/10 10:41:43;;;;;;;;;;;;;;;8.67;73.88;100536.47;6321896;22;19906;-76
2021/03/10 10:44:09;;;;;;;;;;;;;;;8.77;74.56;100525.31;6348144;22;20311;-75
2021/03/10 10:46:34;;;;;;;;;;;;;;;8.86;74.60;100531.97;6322991;22;19906;-76
2021/03/10 10:49:00;;;;;;;;;;;;;;;8.92;74.47;100530.84;6322203;22;19906;-76
2021/03/10 10:51:31;;;;;;;;;;;;;;;9.04;73.94;100529.69;6321862;22;19907;-76
2021/03/10 10:53:59;;;;;;;;;;;;;;;9.12;73.13;100529.91;6322667;22;20232;-73
2021/03/10 10:56:25;;;;;;;;;;;;;;;9.20;73.11;100514.66;6322853;22;20315;-73
2021/03/10 10:58:50;;;;;;;;;;;;;;;9.26;73.17;100515.44;6296610;22;19967;-73
2021/03/10 11:01:16;;;;;;;;;;;;;;;9.32;73.24;100506.00;6322494;22;19941;-73
2021/03/10 11:03:41;;;;;;;;;;;;;;;9.35;72.73;100502.63;6322434;22;19906;-73
2021/03/10 11:06:07;;;;;;;;;;;;;;;9.37;73.04;100512.34;6321924;22;19959;-73
2021/03/10 11:08:34;;;;;;;;;;;;;;;9.37;72.82;100505.97;6322708;22;19910;-73
2021/03/10 11:11:03;;;;;;;;;;;;;;;9.42;72.18;100505.94;6322015;22;19914;-73
2021/03/10 11:13:30;;;;;;;;;;;;;;;9.41;72.50;100498.72;6348241;22;19916;-74
2021/03/10 11:15:58;;;;;;;;;;;;;;;9.43;71.86;100512.31;6297531;22;19989;-74
2021/03/10 11:18:24;;;;;;;;;;;;;;;9.43;72.30;100502.03;6348324;22;19907;-74
2021/03/10 11:20:52;;;;;;;;;;;;;;;9.43;72.01;100506.75;6321775;22;19946;-73
2021/03/10 11:23:22;;;;;;;;;;;;;;;9.40;72.41;100503.44;6296981;22;19914;-73
2021/03/10 11:25:52;;;;;;;;;;;;;;;9.39;73.18;100504.56;6324236;22;20366;-73
2021/03/10 11:28:18;;;;;;;;;;;;;;;9.36;73.04;100498.75;6296740;22;19993;-74
2021/03/10 11:30:43;;;;;;;;;;;;;;;9.36;74.29;100513.47;6295584;22;19915;-73
2021/03/10 11:33:09;;;;;;;;;;;;;;;9.31;74.18;100499.63;6348493;22;19906;-73
2021/03/10 11:35:40;;;;;;;;;;;;;;;9.27;74.51;100497.69;6321076;22;19910;-73
2021/03/10 11:38:06;;;;;;;;;;;;;;;9.21;75.22;100490.53;6323034;22;19913;-73
2021/03/10 11:40:34;;;;;;;;;;;;;;;9.14;75.00;100488.09;6295794;22;19906;-76
2021/03/10 11:43:01;;;;;;;;;;;;;;;9.10;75.63;100485.03;6321525;22;19906;-76
2021/03/10 11:45:29;;;;;;;;;;;;;;;9.05;76.58;100478.69;6347704;22;19998;-76
2021/03/10 11:47:57;;;;;;;;;;;;;;;9.01;76.61;100477.63;6321755;22;19913;-76
2021/03/10 11:50:25;;;;;;;;;;;;;;;8.98;76.68;100467.09;6347957;22;19907;-76
2021/03/10 11:52:50;;;;;;;;;;;;;;;8.94;77.02;100466.81;6348716;22;19907;-76
2021/03/10 11:55:16;;;;;;;;;;;;;;;8.97;77.10;100451.59;6321517;22;19916;-76
2021/03/10 11:57:41;;;;;;;;;;;;;;;9.01;77.29;100458.22;6295421;22;19910;-76
2021/03/10 12:00:07;;;;;;;;;;;;;;;9.05;76.69;100449.03;6347816;22;19929;-76
2021/03/10 12:02:33;;;;;;;;;;;;;;;9.11;77.06;100455.38;6321350;22;19981;-76
2021/03/10 12:04:58;;;;;;;;;;;;;;;9.17;76.69;100440.41;6321425;22;19916;-76
2021/03/10 12:07:27;;;;;;;;;;;;;;;9.26;77.75;100444.22;6321135;22;19906;-76
2021/03/10 12:10:01;;;;;;;;;;;;;;;9.34;77.33;100437.25;6296337;22;19906;-74
2021/03/10 12:12:29;;;;;;;;;;;;;;;9.39;76.79;100429.72;6323073;22;19937;-74
2021/03/10 12:15:05;;;;;;;;;;;;;;;9.50;76.84;100424.09;6324207;22;20249;-73
2021/03/10 12:17:35;;;;;;;;;;;;;;;9.56;76.72;100421.00;6322809;22;19913;-74
2021/03/10 12:20:01;;;;;;;;;;;;;;;9.65;78.74;100409.28;6374825;22;19981;-74
2021/03/10 12:22:26;;;;;;;;;;;;;;;9.77;78.00;100406.97;6375483;22;19914;-73
2021/03/10 12:24:54;;;;;;;;;;;;;;;9.85;77.57;100411.88;6296700;22;19906;-74
2021/03/10 12:27:26;;;;;;;;;;;;;;;9.94;77.63;100415.66;6347384;22;19965;-74
2021/03/10 12:29:55;;;;;;;;;;;;;;;10.03;77.27;100405.59;6348992;22;19926;-74
2021/03/10 12:32:26;;;;;;;;;;;;;;;10.12;76.52;100399.41;6319896;22;19915;-73
2021/03/10 12:34:57;;;;;;;;;;;;;;;10.23;75.52;100389.84;6295171;22;19916;-73
2021/03/10 12:37:25;;;;;;;;;;;;;;;10.32;75.78;100390.88;6321474;22;19913;-74
2021/03/10 12:39:59;;;;;;;;;;;;;;;10.42;76.29;100401.88;6321432;22;19906;-74
2021/03/10 12:42:24;;;;;;;;;;;;;;;10.46;75.52;100383.50;6321218;22;19928;-73
2021/03/10 12:44:52;;;;;;;;;;;;;;;10.51;74.67;100390.94;6321398;22;20273;-73
2021/03/10 12:47:24;;;;;;;;;;;;;;;10.55;76.01;100375.31;6324789;22;19940;-74
2021/03/10 12:49:49;;;;;;;;;;;;;;;10.55;76.40;100375.31;6320613;22;19906;-73
2021/03/10 12:52:15;;;;;;;;;;;;;;;10.58;76.68;100382.25;6321018;22;19906;-74
2021/03/10 12:54:41;;;;;;;;;;;;;;;10.56;76.99;100377.00;6318941;22;19910;-73
2021/03/10 12:57:12;;;;;;;;;;;;;;;10.53;76.36;100391.47;6321756;22;19914;-73
2021/03/10 12:59:40;;;;;;;;;;;;;;;10.48;76.27;100406.25;6296986;22;20304;-74
2021/03/10 13:02:06;;;;;;;;;;;;;;;10.44;77.32;100405.16;6322081;22;19928;-73
2021/03/10 13:04:34;;;;;;;;;;;;;;;10.36;77.95;100396.66;6346022;22;19906;-73
2021/03/10 13:07:02;;;;;;;;;;;;;;;10.27;78.05;100393.72;6321059;22;19955;-73
2021/03/10 13:09:27;;;;;;;;;;;;;;;10.17;78.36;100391.88;6321459;22;19930;-73
2021/03/10 13:11:53;;;;;;;;;;;;;;;10.06;78.63;100380.03;6294590;22;19959;-73
2021/03/10 13:14:19;;;;;;;;;;;;;;;9.98;79.53;100385.41;6295102;22;19959;-74
2021/03/10 13:16:44;;;;;;;;;;;;;;;9.89;79.48;100378.81;6295315;22;19914;-73
2021/03/10 13:19:12;;;;;;;;;;;;;;;9.81;80.35;100375.59;6321092;22;19914;-74
2021/03/10 13:21:37;;;;;;;;;;;;;;;9.75;81.06;100354.56;6346776;22;19986;-74
2021/03/10 13:24:03;;;;;;;;;;;;;;;9.69;81.70;100349.34;6295876;22;19906;-76
2021/03/10 13:26:31;;;;;;;;;;;;;;;9.58;81.93;100338.38;6375091;22;19910;-76
2021/03/10 13:28:59;;;;;;;;;;;;;;;9.52;81.88;100339.50;6322299;22;19945;-74
2021/03/10 13:31:28;;;;;;;;;;;;;;;9.46;82.13;100337.09;6320211;22;20330;-73
2021/03/10 13:33:53;;;;;;;;;;;;;;;9.40;82.67;100337.13;6346750;22;20269;-73
2021/03/10 13:36:20;;;;;;;;;;;;;;;9.37;83.42;100331.34;6320804;22;19914;-74
2021/03/10 13:38:49;;;;;;;;;;;;;;;9.32;83.65;100320.31;6347515;22;20273;-74
2021/03/10 13:41:17;;;;;;;;;;;;;;;9.27;84.77;100318.38;6294908;22;19906;-74
2021/03/10 13:43:43;;;;;;;;;;;;;;;9.24;84.76;100316.19;6320023;22;19927;-74
2021/03/10 13:46:18;;;;;;;;;;;;;;;9.20;84.50;100323.44;6349143;22;20319;-74
2021/03/10 13:48:45;;;;;;;;;;;;;;;9.17;85.29;100299.91;6295649;22;19953;-73
2021/03/10 13:51:11;;;;;;;;;;;;;;;9.14;85.11;100308.81;6295071;22;19906;-73
2021/03/10 13:53:39;;;;;;;;;;;;;;;9.09;86.04;100297.78;6321232;22;19934;-76
2021/03/10 13:56:05;;;;;;;;;;;;;;;9.04;86.15;100297.81;6347313;22;20395;-76
2021/03/10 13:58:33;;;;;;;;;;;;;;;8.99;85.91;100289.53;6295878;22;19913;-76
2021/03/10 14:01:04;;;;;;;;;;;;;;;8.97;86.74;100280.69;6321065;22;19949;-76
2021/03/10 14:03:42;;;;;;;;;;;;;;;8.93;86.58;100287.91;6323455;22;19932;-77
2021/03/10 14:06:28;;;;;;;;;;;;;;;8.87;86.40;100276.06;6349180;22;19906;-74
2021/03/10 14:08:59;;;;;;;;;;;;;;;8.83;86.95;100274.13;6297743;22;19954;-74
2021/03/10 14:11:29;;;;;;;;;;;;;;;8.78;86.78;100274.19;6350523;22;19913;-74
2021/03/10 14:14:09;;;;;;;;;;;;;;;8.72;87.43;100277.00;6298119;22;19913;-73
2021/03/10 14:16:35;;;;;;;;;;;;;;;8.69;87.66;100272.03;6323387;22;19914;-72
2021/03/10 14:19:00;;;;;;;;;;;;;;;8.65;87.03;100273.72;6322705;22;19951;-73
2021/03/10 14:21:25;;;;;;;;;;;;;;;8.58;86.61;100267.69;6349296;22;19977;-72
2021/03/10 14:23:51;;;;;;;;;;;;;;;8.55;87.01;100267.41;6296736;22;19914;-72
2021/03/10 14:26:16;;;;;;;;;;;;;;;8.50;87.19;100258.03;6322868;22;19907;-72
2021/03/10 14:28:42;;;;;;;;;;;;;;;8.44;87.39;100252.81;6296852;22;19906;-72
2021/03/10 14:31:07;;;;;;;;;;;;;;;8.37;87.72;100249.50;6321699;22;19914;-72
2021/03/10 14:33:32;;;;;;;;;;;;;;;8.34;87.81;100236.25;6348365;22;19906;-72
2021/03/10 14:35:58;;;;;;;;;;;;;;;8.33;87.85;100232.66;6376585;22;19914;-72
2021/03/10 14:38:23;;;;;;;;;;;;;;;8.28;87.77;100239.03;6348562;22;20212;-72
2021/03/10 14:40:49;;;;;;;;;;;;;;;8.25;88.46;100231.31;6376280;22;19906;-72
2021/03/10 14:43:14;;;;;;;;;;;;;;;8.24;88.88;100231.59;6322790;22;20231;-72
2021/03/10 14:45:40;;;;;;;;;;;;;;;8.21;89.19;100227.44;6348303;22;19906;-72
2021/03/10 14:48:05;;;;;;;;;;;;;;;8.20;89.16;100223.03;6348728;22;19906;-72
2021/03/10 14:50:31;;;;;;;;;;;;;;;8.19;89.55;100224.16;6348366;22;19929;-73
2021/03/10 14:52:56;;;;;;;;;;;;;;;8.19;89.70;100224.16;6322565;22;20316;-72
2021/03/10 14:55:21;;;;;;;;;;;;;;;8.18;90.26;100219.72;6376176;22;19910;-72
2021/03/10 14:57:47;;;;;;;;;;;;;;;8.17;90.16;100214.50;6322611;22;20029;-72
2021/03/10 15:00:13;;;;;;;;;;;;;;;8.15;90.22;100209.22;6348099;22;19969;-72
2021/03/10 15:02:38;;;;;;;;;;;;;;;8.15;90.05;100205.66;6322312;22;19910;-72
2021/03/10 15:05:04;;;;;;;;;;;;;;;8.11;90.64;100204.53;6348615;22;19907;-72
2021/03/10 15:07:29;;;;;;;;;;;;;;;8.10;90.73;100198.19;6296106;22;19906;-72
2021/03/10 15:09:55;;;;;;;;;;;;;;;8.09;90.62;100207.63;6376044;22;19913;-73
2021/03/10 15:12:20;;;;;;;;;;;;;;;8.07;90.77;100207.88;6348524;22;19995;-72
2021/03/10 15:14:45;;;;;;;;;;;;;;;8.05;90.76;100198.22;6347717;22;20328;-72
2021/03/10 15:17:11;;;;;;;;;;;;;;;8.03;90.40;100189.41;6376082;22;19906;-73
2021/03/10 15:19:36;;;;;;;;;;;;;;;7.98;90.47;100192.19;6348386;22;20258;-72
2021/03/10 15:22:02;;;;;;;;;;;;;;;7.93;90.73;100181.97;6348186;22;19913;-72
2021/03/10 15:24:27;;;;;;;;;;;;;;;7.90;90.62;100171.47;6296594;22;19962;-72
2021/03/10 15:26:53;;;;;;;;;;;;;;;7.88;90.77;100161.81;6322250;22;19906;-72
2021/03/10 15:29:18;;;;;;;;;;;;;;;7.85;90.91;100157.69;6348171;22;19910;-72
2021/03/10 15:31:43;;;;;;;;;;;;;;;7.80;90.84;100153.03;6321085;22;19914;-73
2021/03/10 15:34:09;;;;;;;;;;;;;;;7.77;90.73;100167.41;6321883;22;19937;-72
2021/03/10 15:37:05;;;;;;;;;;;;;;;7.75;90.82;100163.28;6347470;22;19907;-75
2021/03/10 15:39:31;;;;;;;;;;;;;;;7.70;91.14;100144.78;6347512;22;19924;-73
2021/03/10 15:41:59;;;;;;;;;;;;;;;7.68;90.60;100141.44;6322661;22;19925;-74
2021/03/10 15:44:25;;;;;;;;;;;;;;;7.63;90.66;100144.22;6347994;22;19942;-73
2021/03/10 15:46:56;;;;;;;;;;;;;;;7.61;90.65;100146.47;6321811;22;19917;-73
2021/03/10 15:49:24;;;;;;;;;;;;;;;7.58;90.83;100147.06;6324607;22;19907;-74
2021/03/10 15:51:55;;;;;;;;;;;;;;;7.54;91.21;100143.19;6376105;22;19906;-73
2021/03/10 15:54:20;;;;;;;;;;;;;;;7.54;91.07;100143.19;6322100;22;19907;-73
2021/03/10 15:56:45;;;;;;;;;;;;;;;7.51;91.09;100141.00;6296001;22;19916;-73
2021/03/10 15:59:11;;;;;;;;;;;;;;;7.50;91.09;100139.34;6321753;22;19941;-73
2021/03/10 16:01:39;;;;;;;;;;;;;;;7.48;90.92;100141.56;6322024;22;19937;-73
2021/03/10 16:04:07;;;;;;;;;;;;;;;7.47;91.34;100139.91;6348440;22;20066;-73
2021/03/10 16:06:32;;;;;;;;;;;;;;;7.45;91.54;100125.53;6295762;22;19906;-75
2021/03/10 16:08:58;;;;;;;;;;;;;;;7.43;91.75;100111.19;6347167;22;19910;-76
2021/03/10 16:11:26;;;;;;;;;;;;;;;7.39;91.49;100122.78;6321915;22;19910;-76
2021/03/10 16:13:53;;;;;;;;;;;;;;;7.37;91.54;100119.47;6296308;22;19913;-73
2021/03/10 16:16:19;;;;;;;;;;;;;;;7.34;91.77;100114.53;6295778;22;20526;-76
2021/03/10 16:18:44;;;;;;;;;;;;;;;7.33;92.07;100103.78;6347663;22;19910;-76
2021/03/10 16:21:10;;;;;;;;;;;;;;;7.31;92.04;100115.09;6347851;22;19910;-75
2021/03/10 16:23:35;;;;;;;;;;;;;;;7.30;92.30;100107.94;6347523;22;19945;-75
2021/03/10 16:26:01;;;;;;;;;;;;;;;7.29;92.15;100106.25;6375604;22;19917;-75
2021/03/10 16:28:26;;;;;;;;;;;;;;;7.29;92.50;100097.16;6295831;22;19914;-75
2021/03/10 16:30:52;;;;;;;;;;;;;;;7.29;92.63;100099.91;6374241;22;19914;-75
2021/03/10 16:33:23;;;;;;;;;;;;;;;7.27;93.39;100080.88;6321422;22;20326;-76
2021/03/10 16:35:48;;;;;;;;;;;;;;;7.26;93.14;100075.63;6322203;22;20457;-75
2021/03/10 16:38:14;;;;;;;;;;;;;;;7.26;93.50;100072.84;6321050;22;19910;-76
2021/03/10 16:40:40;;;;;;;;;;;;;;;7.25;93.44;100076.72;6321324;22;19955;-76
2021/03/10 16:43:07;;;;;;;;;;;;;;;7.25;93.72;100060.97;6348364;22;19910;-76
2021/03/10 16:45:33;;;;;;;;;;;;;;;7.23;93.83;100063.19;6321316;22;19913;-76
2021/03/10 16:47:59;;;;;;;;;;;;;;;7.23;93.90;100067.91;6296006;22;20277;-76
2021/03/10 16:50:24;;;;;;;;;;;;;;;7.24;93.94;100055.72;6295079;22;19906;-76
2021/03/10 16:52:50;;;;;;;;;;;;;;;7.23;94.09;100052.16;6347239;22;19988;-76
2021/03/10 16:55:15;;;;;;;;;;;;;;;7.22;94.14;100050.50;6321068;22;19933;-75
2021/03/10 16:57:43;;;;;;;;;;;;;;;7.21;93.91;100048.84;6295793;22;19906;-75
2021/03/10 17:00:14;;;;;;;;;;;;;;;7.21;94.15;100053.53;6340302;22;19906;-76
2021/03/10 17:02:39;;;;;;;;;;;;;;;7.21;94.57;100048.84;6289806;22;19910;-76
2021/03/10 17:05:05;;;;;;;;;;;;;;;7.20;94.63;100060.19;6314521;22;19948;-76
2021/03/10 17:07:38;;;;;;;;;;;;;;;7.18;94.37;100054.94;6341971;22;19907;-75
2021/03/10 17:10:10;;;;;;;;;;;;;;;7.18;94.41;100054.94;6314620;22;19907;-76
2021/03/10 17:12:41;;;;;;;;;;;;;;;7.18;94.37;100059.63;6315370;22;19906;-76
2021/03/10 17:15:09;;;;;;;;;;;;;;;7.15;94.59;100063.78;6288793;22;19986;-76
2021/03/10 17:17:43;;;;;;;;;;;;;;;7.16;94.60;100068.22;6288938;22;19907;-76
2021/03/10 17:20:09;;;;;;;;;;;;;;;7.15;94.66;100055.50;6290577;22;19914;-74
2021/03/10 17:22:38;;;;;;;;;;;;;;;7.16;94.65;100059.94;6288474;22;19906;-73
2021/03/10 17:25:06;;;;;;;;;;;;;;;7.12;94.45;100054.13;6289458;22;19907;-73
2021/03/10 17:27:32;;;;;;;;;;;;;;;7.13;94.76;100061.31;6314903;22;20584;-73
2021/03/10 17:29:57;;;;;;;;;;;;;;;7.11;94.75;100065.47;6288991;22;20013;-73
2021/03/10 17:32:23;;;;;;;;;;;;;;;7.13;94.90;100063.22;6262137;22;19964;-73
2021/03/10 17:34:48;;;;;;;;;;;;;;;7.13;94.60;100060.47;6288295;22;19914;-73
2021/03/10 17:37:14;;;;;;;;;;;;;;;7.12;94.78;100056.06;6263579;22;19910;-73
2021/03/10 17:39:42;;;;;;;;;;;;;;;7.12;94.88;100045.00;6292808;22;20235;-73
2021/03/10 17:42:08;;;;;;;;;;;;;;;7.10;95.62;100080.34;6266744;22;19937;-73
2021/03/10 17:44:34;;;;;;;;;;;;;;;7.11;95.42;100059.94;6292089;22;19945;-73
2021/03/10 17:47:02;;;;;;;;;;;;;;;7.11;95.46;100057.19;6344858;22;19921;-73
2021/03/10 17:49:27;;;;;;;;;;;;;;;7.12;95.36;100061.59;6316190;22;19911;-73
2021/03/10 17:51:55;;;;;;;;;;;;;;;7.10;95.47;100063.78;6316789;22;19914;-73
2021/03/10 17:54:30;;;;;;;;;;;;;;;7.11;95.46;100037.84;6290007;22;20243;-74
2021/03/10 17:56:55;;;;;;;;;;;;;;;7.08;95.54;100053.03;6291242;22;19911;-73
2021/03/10 17:59:23;;;;;;;;;;;;;;;7.07;95.71;100045.84;6317255;22;19906;-75
2021/03/10 18:01:48;;;;;;;;;;;;;;;7.07;95.84;100037.56;6316172;22;19917;-76
2021/03/10 18:04:14;;;;;;;;;;;;;;;7.08;95.48;100030.13;6343683;22;19907;-76
2021/03/10 18:06:39;;;;;;;;;;;;;;;7.09;95.14;100034.53;6290440;22;19938;-76
2021/03/10 18:09:08;;;;;;;;;;;;;;;7.06;95.70;100032.34;6288034;22;20296;-76
2021/03/10 18:11:36;;;;;;;;;;;;;;;7.07;95.75;100017.41;6265677;22;19906;-76
2021/03/10 18:14:02;;;;;;;;;;;;;;;7.07;95.81;100003.59;6290549;22;19913;-75
2021/03/10 18:16:27;;;;;;;;;;;;;;;7.07;96.22;99998.09;6315693;22;19965;-76
2021/03/10 18:18:53;;;;;;;;;;;;;;;7.06;95.96;100000.03;6289895;22;19926;-75
2021/03/10 18:21:18;;;;;;;;;;;;;;;7.07;95.53;100000.84;6316512;22;19914;-75
2021/03/10 18:23:43;;;;;;;;;;;;;;;7.07;96.08;99992.56;6289806;22;19959;-76
2021/03/10 18:26:09;;;;;;;;;;;;;;;7.05;96.35;99978.22;6315605;22;19907;-76
2021/03/10 18:28:34;;;;;;;;;;;;;;;7.06;95.86;99977.13;6316209;22;20369;-75
2021/03/10 18:31:00;;;;;;;;;;;;;;;7.03;96.41;99970.22;6314790;22;19988;-76
2021/03/10 18:33:25;;;;;;;;;;;;;;;7.06;96.12;99975.19;6290128;22;19910;-73
2021/03/10 18:35:57;;;;;;;;;;;;;;;7.05;96.38;99968.00;6343107;22;19950;-74
2021/03/10 18:38:22;;;;;;;;;;;;;;;7.06;96.51;99975.19;6315385;22;19918;-74
2021/03/10 18:40:48;;;;;;;;;;;;;;;7.07;96.89;99971.28;6264883;22;19906;-74
2021/03/10 18:43:13;;;;;;;;;;;;;;;7.08;96.79;99983.19;6289381;22;19913;-73
2021/03/10 18:45:38;;;;;;;;;;;;;;;7.08;97.02;99974.91;6263739;22;19964;-76
2021/03/10 18:48:04;;;;;;;;;;;;;;;7.10;97.15;99969.91;6315995;22;19907;-76
2021/03/10 18:50:30;;;;;;;;;;;;;;;7.08;96.85;99983.19;6288888;22;19932;-76
2021/03/10 18:52:55;;;;;;;;;;;;;;;7.09;96.88;99982.06;6316100;22;19910;-77
2021/03/10 18:55:21;;;;;;;;;;;;;;;7.10;96.96;99972.66;6290211;22;19910;-75
2021/03/10 18:57:50;;;;;;;;;;;;;;;7.11;97.51;99966.06;6288849;22;19997;-77
2021/03/10 19:00:16;;;;;;;;;;;;;;;7.12;97.28;99963.00;6289720;22;19907;-76
2021/03/10 19:02:42;;;;;;;;;;;;;;;7.09;97.40;99960.81;6290030;22;19907;-73
2021/03/10 19:05:08;;;;;;;;;;;;;;;7.11;97.33;99960.53;6288864;22;19913;-73